createdAt,value
2022-11-12T00:00:19.617Z,2.00
2022-11-12T00:01:22.223Z,1.67
2022-11-12T00:02:24.844Z,1.00
2022-11-12T00:03:27.398Z,1.50
2022-11-12T00:04:30.240Z,1.00
2022-11-12T00:05:33.065Z,0.67
2022-11-12T00:06:36.038Z,0.33
2022-11-12T00:07:39.280Z,0.57
2022-11-12T00:08:42.017Z,0.29
2022-11-12T00:09:44.918Z,1.00
2022-11-12T00:10:47.754Z,1.00
2022-11-12T00:11:50.673Z,1.00
2022-11-12T00:12:54.752Z,1.00
2022-11-12T00:13:57.330Z,1.25
2022-11-12T00:15:00.110Z,0.67
2022-11-12T00:16:02.668Z,1.17
2022-11-12T00:17:05.264Z,1.67
2022-11-12T00:18:08.085Z,1.50
2022-11-12T00:19:10.691Z,1.00
2022-11-12T00:20:13.522Z,1.33
2022-11-12T00:21:16.218Z,1.71
2022-11-12T00:22:19.072Z,2.00
2022-11-12T00:23:21.727Z,1.00
2022-11-12T00:24:24.313Z,1.00
2022-11-12T00:25:27.008Z,1.00
2022-11-12T00:26:29.572Z,1.00
2022-11-12T00:27:32.143Z,1.00
2022-11-12T00:28:38.009Z,1.00
2022-11-12T00:29:38.789Z,1.50
2022-11-12T00:30:41.431Z,2.00
2022-11-12T00:31:44.078Z,1.83
2022-11-12T00:32:46.603Z,1.17
2022-11-12T00:33:49.515Z,2.00
2022-11-12T00:34:52.245Z,2.00
2022-11-12T00:35:54.875Z,2.00
2022-11-12T00:36:57.872Z,1.00
2022-11-12T00:38:00.720Z,1.86
2022-11-12T00:39:03.663Z,1.33
2022-11-12T00:40:06.244Z,2.00
2022-11-12T00:41:08.810Z,1.67
2022-11-12T00:42:11.389Z,1.00
2022-11-12T00:43:14.295Z,0.67
2022-11-12T00:44:17.299Z,1.86
2022-11-12T00:45:19.885Z,1.33
2022-11-12T00:46:22.494Z,1.33
2022-11-12T00:47:25.135Z,1.50
2022-11-12T00:48:27.929Z,1.71
2022-11-12T00:49:30.865Z,0.67
2022-11-12T00:50:33.433Z,1.50
2022-11-12T00:51:35.985Z,1.67
2022-11-12T00:52:38.664Z,2.00
2022-11-12T00:53:41.291Z,1.50
2022-11-12T00:54:43.910Z,1.33
2022-11-12T00:55:46.553Z,1.83
2022-11-12T00:56:49.145Z,1.50
2022-11-12T00:57:51.695Z,2.00
2022-11-12T00:58:54.172Z,1.83
2022-11-12T00:59:56.746Z,2.00
2022-11-12T01:00:59.476Z,2.33
2022-11-12T01:02:02.031Z,2.29
2022-11-12T01:03:04.754Z,2.00
2022-11-12T01:04:07.371Z,1.00
2022-11-12T01:05:10.240Z,1.00
2022-11-12T01:06:15.994Z,2.00
2022-11-12T01:07:18.854Z,2.50
2022-11-12T01:08:21.554Z,2.50
2022-11-12T01:09:24.195Z,1.67
2022-11-12T01:10:26.916Z,1.33
2022-11-12T01:11:29.760Z,2.00
2022-11-12T01:12:32.621Z,1.83
2022-11-12T01:13:37.706Z,2.43
2022-11-12T01:14:39.274Z,2.14
2022-11-12T01:15:42.075Z,2.00
2022-11-12T01:16:44.694Z,2.00
2022-11-12T01:17:47.288Z,2.33
2022-11-12T01:18:50.128Z,2.67
2022-11-12T01:19:52.807Z,1.67
2022-11-12T01:20:55.561Z,1.67
2022-11-12T01:21:58.195Z,2.50
2022-11-12T01:23:00.771Z,1.17
2022-11-12T01:24:03.388Z,1.33
2022-11-12T01:25:06.357Z,1.33
2022-11-12T01:26:09.182Z,2.14
2022-11-12T01:27:11.898Z,2.00
2022-11-12T01:28:14.778Z,2.17
2022-11-12T01:29:17.324Z,1.50
2022-11-12T01:30:20.030Z,2.00
2022-11-12T01:31:22.685Z,2.33
2022-11-12T01:32:26.204Z,2.43
2022-11-12T01:33:28.835Z,2.00
2022-11-12T01:34:31.418Z,2.67
2022-11-12T01:35:34.019Z,1.67
2022-11-12T01:36:36.693Z,2.00
2022-11-12T01:37:39.368Z,1.00
2022-11-12T01:38:42.218Z,0.67
2022-11-12T01:39:44.792Z,0.50
2022-11-12T01:40:47.512Z,1.33
2022-11-12T01:41:50.123Z,2.00
2022-11-12T01:42:52.744Z,2.00
2022-11-12T01:43:55.357Z,1.50
2022-11-12T01:44:57.931Z,1.17
2022-11-12T01:46:00.507Z,3.00
2022-11-12T01:47:03.082Z,2.00
2022-11-12T01:48:05.805Z,2.00
2022-11-12T01:49:08.542Z,1.71
2022-11-12T01:50:11.136Z,2.00
2022-11-12T01:51:13.720Z,1.67
2022-11-12T01:52:16.667Z,2.00
2022-11-12T01:53:19.231Z,2.00
2022-11-12T01:54:21.924Z,1.33
2022-11-12T01:55:24.589Z,1.50
2022-11-12T01:56:27.222Z,1.57
2022-11-12T01:57:34.444Z,1.33
2022-11-12T01:58:33.666Z,1.62
2022-11-12T01:59:36.185Z,2.00
2022-11-12T02:00:39.110Z,1.50
2022-11-12T02:01:41.954Z,1.00
2022-11-12T02:02:44.625Z,1.43
2022-11-12T02:03:47.230Z,2.00
2022-11-12T02:04:49.871Z,1.50
2022-11-12T02:05:52.617Z,1.33
2022-11-12T02:06:55.356Z,2.00
2022-11-12T02:07:58.177Z,2.33
2022-11-12T02:09:00.778Z,2.33
2022-11-12T02:10:03.374Z,2.17
2022-11-12T02:11:05.944Z,3.00
2022-11-12T02:12:08.483Z,2.17
2022-11-12T02:13:10.993Z,2.00
2022-11-12T02:14:13.522Z,2.00
2022-11-12T02:15:16.160Z,2.33
2022-11-12T02:16:18.832Z,3.67
2022-11-12T02:17:21.387Z,2.67
2022-11-12T02:18:24.407Z,2.00
2022-11-12T02:19:27.234Z,2.00
2022-11-12T02:20:29.874Z,2.33
2022-11-12T02:21:32.453Z,2.50
2022-11-12T02:22:35.054Z,2.17
2022-11-12T02:23:37.776Z,2.00
2022-11-12T02:24:40.402Z,2.33
2022-11-12T02:25:43.047Z,3.00
2022-11-12T02:26:46.348Z,3.67
2022-11-12T02:27:49.386Z,3.00
2022-11-12T02:28:52.154Z,2.57
2022-11-12T02:29:57.773Z,2.50
2022-11-12T02:31:00.420Z,2.00
2022-11-12T02:32:03.121Z,1.67
2022-11-12T02:33:05.726Z,1.50
2022-11-12T02:34:08.524Z,2.50
2022-11-12T02:35:11.083Z,2.00
2022-11-12T02:36:13.695Z,2.00
2022-11-12T02:37:16.212Z,2.00
2022-11-12T02:38:18.852Z,1.50
2022-11-12T02:39:21.450Z,1.50
2022-11-12T02:40:24.024Z,2.00
2022-11-12T02:41:26.811Z,2.00
2022-11-12T02:42:29.632Z,2.00
2022-11-12T02:43:32.453Z,2.17
2022-11-12T02:44:35.683Z,2.57
2022-11-12T02:45:38.512Z,2.43
2022-11-12T02:46:41.412Z,2.67
2022-11-12T02:47:44.158Z,2.00
2022-11-12T02:48:46.710Z,1.83
2022-11-12T02:49:49.385Z,2.00
2022-11-12T02:50:51.950Z,2.00
2022-11-12T02:51:54.509Z,2.33
2022-11-12T02:52:57.109Z,2.00
2022-11-12T02:54:00.107Z,1.43
2022-11-12T02:55:02.768Z,2.00
2022-11-12T02:56:05.405Z,2.33
2022-11-12T02:57:08.007Z,2.50
2022-11-12T02:58:10.591Z,1.33
2022-11-12T02:59:13.200Z,2.00
2022-11-12T03:00:15.932Z,1.83
2022-11-12T03:01:18.474Z,2.33
2022-11-12T03:02:21.280Z,2.83
2022-11-12T03:03:24.121Z,3.00
2022-11-12T03:04:26.948Z,3.71
2022-11-12T03:05:29.859Z,4.00
2022-11-12T03:06:32.836Z,2.50
2022-11-12T03:07:35.462Z,2.86
2022-11-12T03:08:38.334Z,3.17
2022-11-12T03:09:41.182Z,2.00
2022-11-12T03:10:44.256Z,1.83
2022-11-12T03:11:47.101Z,1.67
2022-11-12T03:12:49.926Z,2.33
2022-11-12T03:13:52.641Z,2.29
2022-11-12T03:14:55.558Z,2.33
2022-11-12T03:15:58.437Z,3.00
2022-11-12T03:17:01.238Z,3.33
2022-11-12T03:18:03.839Z,2.67
2022-11-12T03:19:06.467Z,2.50
2022-11-12T03:20:09.077Z,2.83
2022-11-12T03:21:12.142Z,2.67
2022-11-12T03:22:14.772Z,2.71
2022-11-12T03:23:17.383Z,2.67
2022-11-12T03:24:20.270Z,3.00
2022-11-12T03:25:22.961Z,2.67
2022-11-12T03:26:25.916Z,2.67
2022-11-12T03:27:28.528Z,2.33
2022-11-12T03:28:31.460Z,2.50
2022-11-12T03:29:34.291Z,3.00
2022-11-12T03:30:37.156Z,2.67
2022-11-12T03:31:40.186Z,2.43
2022-11-12T03:32:42.935Z,2.43
2022-11-12T03:33:45.519Z,2.67
2022-11-12T03:34:50.570Z,2.50
2022-11-12T03:35:52.304Z,3.00
2022-11-12T03:36:54.965Z,3.00
2022-11-12T03:37:57.845Z,3.00
2022-11-12T03:39:00.413Z,3.00
2022-11-12T03:40:02.969Z,2.83
2022-11-12T03:41:05.630Z,3.33
2022-11-12T03:42:08.608Z,4.00
2022-11-12T03:43:11.241Z,2.86
2022-11-12T03:44:13.900Z,2.67
2022-11-12T03:45:16.452Z,3.17
2022-11-12T03:46:19.115Z,3.00
2022-11-12T03:47:21.791Z,3.00
2022-11-12T03:48:24.791Z,2.57
2022-11-12T03:49:27.637Z,2.57
2022-11-12T03:50:30.218Z,1.67
2022-11-12T03:51:32.868Z,2.33
2022-11-12T03:52:35.618Z,3.83
2022-11-12T03:53:38.158Z,3.67
2022-11-12T03:54:40.813Z,3.67
2022-11-12T03:55:43.328Z,2.00
2022-11-12T03:56:46.030Z,2.17
2022-11-12T03:57:49.089Z,2.50
2022-11-12T03:58:51.745Z,2.50
2022-11-12T03:59:54.342Z,2.50
2022-11-12T04:00:57.163Z,2.33
2022-11-12T04:02:00.191Z,2.33
2022-11-12T04:03:02.995Z,2.00
2022-11-12T04:04:05.642Z,2.33
2022-11-12T04:05:08.285Z,3.33
2022-11-12T04:06:10.924Z,3.67
2022-11-12T04:07:13.600Z,2.33
2022-11-12T04:08:16.694Z,1.83
2022-11-12T04:09:19.541Z,1.67
2022-11-12T04:10:22.426Z,2.17
2022-11-12T04:11:25.229Z,2.86
2022-11-12T04:12:28.085Z,2.67
2022-11-12T04:13:31.127Z,2.57
2022-11-12T04:14:33.936Z,2.57
2022-11-12T04:15:36.580Z,2.50
2022-11-12T04:16:39.463Z,2.14
2022-11-12T04:17:42.271Z,2.50
2022-11-12T04:18:45.148Z,3.71
2022-11-12T04:19:47.787Z,3.67
2022-11-12T04:20:50.401Z,3.00
2022-11-12T04:21:53.043Z,3.67
2022-11-12T04:22:55.906Z,4.50
2022-11-12T04:23:58.533Z,4.00
2022-11-12T04:25:01.068Z,4.00
2022-11-12T04:26:03.632Z,4.33
2022-11-12T04:27:06.206Z,3.67
2022-11-12T04:28:08.768Z,2.71
2022-11-12T04:29:11.494Z,3.17
2022-11-12T04:30:14.054Z,4.00
2022-11-12T04:31:16.676Z,4.17
2022-11-12T04:32:19.597Z,2.83
2022-11-12T04:33:22.200Z,3.14
2022-11-12T04:34:25.288Z,3.67
2022-11-12T04:35:27.934Z,3.43
2022-11-12T04:36:30.468Z,4.00
2022-11-12T04:37:33.121Z,3.67
2022-11-12T04:38:35.693Z,3.67
2022-11-12T04:39:38.393Z,4.67
2022-11-12T04:40:40.922Z,4.00
2022-11-12T04:41:43.429Z,4.00
2022-11-12T04:42:46.027Z,3.50
2022-11-12T04:43:48.653Z,3.67
2022-11-12T04:44:51.300Z,3.33
2022-11-12T04:45:53.885Z,4.14
2022-11-12T04:46:56.487Z,4.33
2022-11-12T04:47:59.012Z,3.33
2022-11-12T04:49:01.495Z,3.33
2022-11-12T04:50:04.156Z,2.83
2022-11-12T04:51:06.696Z,2.83
2022-11-12T04:52:09.335Z,4.00
2022-11-12T04:53:11.934Z,3.83
2022-11-12T04:54:14.544Z,3.00
2022-11-12T04:55:18.135Z,3.33
2022-11-12T04:56:20.971Z,4.00
2022-11-12T04:57:23.583Z,3.83
2022-11-12T04:58:26.671Z,3.67
2022-11-12T04:59:29.772Z,3.33
2022-11-12T05:00:32.653Z,3.67
2022-11-12T05:01:35.222Z,3.43
2022-11-12T05:02:37.813Z,4.67
2022-11-12T05:03:40.708Z,3.83
2022-11-12T05:04:43.346Z,3.67
2022-11-12T05:05:46.259Z,2.57
2022-11-12T05:06:48.854Z,3.33
2022-11-12T05:07:51.665Z,3.50
2022-11-12T05:08:54.466Z,3.50
2022-11-12T05:09:57.116Z,4.00
2022-11-12T05:10:59.948Z,4.00
2022-11-12T05:12:02.728Z,4.00
2022-11-12T05:13:05.614Z,2.86
2022-11-12T05:14:08.245Z,2.86
2022-11-12T05:15:10.864Z,3.33
2022-11-12T05:16:13.406Z,4.33
2022-11-12T05:17:16.095Z,4.50
2022-11-12T05:18:18.586Z,4.00
2022-11-12T05:19:21.174Z,4.33
2022-11-12T05:20:24.024Z,4.67
2022-11-12T05:21:27.154Z,4.00
2022-11-12T05:22:43.394Z,4.00
2022-11-12T05:23:33.785Z,4.25
2022-11-12T05:24:42.019Z,4.67
2022-11-12T05:25:40.214Z,4.57
2022-11-12T05:26:43.099Z,4.50
2022-11-12T05:27:45.707Z,3.57
2022-11-12T05:28:48.269Z,3.50
2022-11-12T05:29:50.865Z,4.00
2022-11-12T05:30:53.755Z,4.00
2022-11-12T05:31:56.448Z,3.50
2022-11-12T05:32:59.090Z,3.00
2022-11-12T05:34:01.691Z,3.83
2022-11-12T05:35:04.335Z,3.50
2022-11-12T05:36:06.929Z,3.00
2022-11-12T05:37:09.501Z,3.33
2022-11-12T05:38:12.097Z,4.50
2022-11-12T05:39:14.794Z,6.67
2022-11-12T05:40:17.535Z,7.17
2022-11-12T05:41:20.488Z,6.00
2022-11-12T05:42:23.289Z,7.00
2022-11-12T05:43:25.926Z,6.00
2022-11-12T05:44:28.483Z,4.67
2022-11-12T05:45:31.291Z,6.00
2022-11-12T05:46:33.901Z,5.67
2022-11-12T05:47:36.821Z,5.33
2022-11-12T05:48:39.780Z,5.57
2022-11-12T05:49:42.585Z,4.83
2022-11-12T05:51:11.132Z,5.33
2022-11-12T05:51:49.294Z,3.75
2022-11-12T05:52:52.094Z,3.67
2022-11-12T05:53:54.643Z,5.86
2022-11-12T05:54:57.455Z,7.50
2022-11-12T05:56:00.091Z,7.67
2022-11-12T05:57:03.063Z,7.67
2022-11-12T05:58:05.618Z,6.50
2022-11-12T05:59:08.290Z,6.00
2022-11-12T06:00:10.872Z,6.00
2022-11-12T06:01:13.394Z,6.33
2022-11-12T06:02:16.237Z,6.33
2022-11-12T06:03:19.199Z,5.67
2022-11-12T06:04:21.952Z,6.14
2022-11-12T06:05:25.149Z,4.33
2022-11-12T06:06:28.271Z,4.00
2022-11-12T06:07:30.886Z,4.00
2022-11-12T06:08:33.503Z,3.83
2022-11-12T06:09:36.260Z,4.00
2022-11-12T06:10:38.906Z,4.00
2022-11-12T06:11:41.756Z,4.67
2022-11-12T06:12:44.566Z,4.00
2022-11-12T06:13:47.450Z,4.00
2022-11-12T06:14:50.134Z,4.43
2022-11-12T06:15:52.747Z,5.33
2022-11-12T06:16:55.419Z,4.83
2022-11-12T06:17:58.217Z,4.86
2022-11-12T06:19:01.104Z,5.67
2022-11-12T06:20:03.912Z,4.57
2022-11-12T06:21:06.623Z,3.83
2022-11-12T06:22:09.224Z,4.17
2022-11-12T06:23:11.780Z,4.83
2022-11-12T06:24:14.519Z,4.50
2022-11-12T06:25:17.108Z,4.33
2022-11-12T06:26:19.669Z,5.00
2022-11-12T06:27:22.385Z,5.00
2022-11-12T06:28:25.310Z,5.33
2022-11-12T06:29:28.322Z,4.57
2022-11-12T06:30:31.348Z,4.57
2022-11-12T06:31:33.975Z,4.00
2022-11-12T06:32:36.840Z,4.17
2022-11-12T06:33:39.590Z,4.33
2022-11-12T06:34:42.245Z,5.33
2022-11-12T06:35:44.833Z,5.67
2022-11-12T06:36:47.496Z,4.67
2022-11-12T06:37:50.393Z,5.33
2022-11-12T06:38:52.988Z,5.29
2022-11-12T06:39:55.842Z,5.17
2022-11-12T06:40:58.723Z,5.00
2022-11-12T06:42:01.549Z,4.33
2022-11-12T06:43:04.143Z,5.43
2022-11-12T06:44:06.825Z,6.33
2022-11-12T06:45:09.602Z,6.50
2022-11-12T06:46:12.258Z,5.43
2022-11-12T06:47:14.818Z,6.00
2022-11-12T06:48:17.430Z,5.17
2022-11-12T06:49:20.467Z,5.00
2022-11-12T06:50:23.448Z,5.67
2022-11-12T06:51:26.318Z,5.57
2022-11-12T06:52:28.883Z,4.83
2022-11-12T06:54:33.602Z,5.80
2022-11-12T06:55:36.351Z,4.33
2022-11-12T06:56:38.993Z,4.00
2022-11-12T06:57:41.605Z,5.33
2022-11-12T06:58:44.175Z,6.33
2022-11-12T06:59:46.688Z,6.33
2022-11-12T07:00:49.369Z,4.17
2022-11-12T07:01:52.336Z,4.83
2022-11-12T07:02:55.037Z,4.71
2022-11-12T07:03:57.649Z,3.67
2022-11-12T07:05:00.259Z,5.33
2022-11-12T07:06:03.022Z,5.33
2022-11-12T07:07:09.452Z,6.33
2022-11-12T07:08:09.495Z,6.43
2022-11-12T07:09:12.060Z,6.00
2022-11-12T07:10:14.610Z,5.67
2022-11-12T07:11:17.247Z,6.00
2022-11-12T07:12:19.913Z,7.67
2022-11-12T07:13:22.474Z,8.00
2022-11-12T07:14:25.068Z,8.67
2022-11-12T07:15:27.701Z,8.67
2022-11-12T07:16:30.449Z,8.00
2022-11-12T07:17:33.192Z,7.71
2022-11-12T07:18:35.780Z,8.17
2022-11-12T07:19:38.391Z,8.67
2022-11-12T07:20:41.029Z,7.33
2022-11-12T07:21:43.708Z,7.33
2022-11-12T07:22:46.375Z,6.33
2022-11-12T07:23:48.968Z,7.57
2022-11-12T07:24:51.581Z,7.67
2022-11-12T07:25:54.351Z,7.33
2022-11-12T07:26:57.029Z,7.29
2022-11-12T07:28:02.516Z,7.33
2022-11-12T07:29:05.043Z,5.75
2022-11-12T07:30:07.605Z,5.14
2022-11-12T07:31:10.109Z,6.00
2022-11-12T07:32:12.885Z,5.67
2022-11-12T07:33:15.516Z,4.67
2022-11-12T07:34:18.068Z,5.00
2022-11-12T07:35:20.667Z,4.67
2022-11-12T07:36:23.324Z,5.67
2022-11-12T07:37:26.191Z,5.00
2022-11-12T07:38:29.245Z,4.33
2022-11-12T07:39:32.142Z,5.00
2022-11-12T07:40:34.959Z,5.00
2022-11-12T07:41:37.813Z,4.83
2022-11-12T07:42:40.609Z,4.00
2022-11-12T07:43:43.228Z,4.33
2022-11-12T07:44:45.812Z,4.83
2022-11-12T07:45:48.370Z,5.17
2022-11-12T07:46:51.014Z,4.83
2022-11-12T07:47:53.922Z,5.17
2022-11-12T07:48:56.569Z,5.67
2022-11-12T07:49:59.385Z,4.71
2022-11-12T07:51:02.087Z,5.67
2022-11-12T07:52:04.665Z,7.00
2022-11-12T07:53:07.631Z,6.33
2022-11-12T07:54:10.170Z,6.50
2022-11-12T07:55:12.791Z,8.00
2022-11-12T07:56:15.410Z,10.00
2022-11-12T07:57:18.032Z,10.00
2022-11-12T07:59:44.728Z,6.00
2022-11-12T08:01:50.488Z,5.12
2022-11-12T08:02:53.051Z,5.33
2022-11-12T08:03:55.817Z,5.67
2022-11-12T08:04:58.637Z,5.57
2022-11-12T08:06:01.278Z,5.67
2022-11-12T08:07:03.965Z,4.67
2022-11-12T08:08:06.927Z,3.86
2022-11-12T08:09:10.083Z,4.00
2022-11-12T08:10:12.681Z,4.00
2022-11-12T08:11:15.277Z,4.33
2022-11-12T08:12:17.926Z,5.33
2022-11-12T08:13:20.524Z,5.33
2022-11-12T08:14:23.473Z,4.33
2022-11-12T08:15:26.044Z,4.71
2022-11-12T08:16:28.552Z,5.00
2022-11-12T08:17:31.188Z,4.67
2022-11-12T08:18:33.762Z,4.33
2022-11-12T08:19:36.535Z,5.83
2022-11-12T08:20:39.333Z,6.67
2022-11-12T08:21:41.951Z,5.00
2022-11-12T08:22:49.038Z,5.00
2022-11-12T08:23:48.343Z,5.86
2022-11-12T08:24:51.040Z,7.00
2022-11-12T08:25:53.630Z,7.00
2022-11-12T08:26:56.263Z,6.33
2022-11-12T08:27:58.786Z,5.33
2022-11-12T08:29:05.426Z,6.33
2022-11-12T08:30:05.270Z,5.57
2022-11-12T08:31:07.913Z,4.50
2022-11-12T08:32:10.386Z,5.50
2022-11-12T08:33:13.019Z,5.33
2022-11-12T08:34:21.402Z,4.33
2022-11-12T08:35:19.689Z,5.00
2022-11-12T08:36:22.346Z,4.67
2022-11-12T08:37:24.966Z,4.33
2022-11-12T08:38:27.944Z,5.00
2022-11-12T08:39:30.834Z,5.00
2022-11-12T08:40:33.452Z,5.00
2022-11-12T08:41:36.321Z,4.33
2022-11-12T08:42:39.102Z,5.67
2022-11-12T08:43:41.963Z,6.00
2022-11-12T08:44:44.756Z,5.33
2022-11-12T08:45:47.836Z,6.17
2022-11-12T08:46:50.594Z,5.43
2022-11-12T08:47:53.100Z,5.67
2022-11-12T08:48:55.703Z,4.67
2022-11-12T08:49:58.249Z,5.33
2022-11-12T08:51:00.787Z,5.67
2022-11-12T08:52:11.720Z,5.00
2022-11-12T08:53:14.803Z,3.83
2022-11-12T08:54:17.786Z,5.86
2022-11-12T08:55:20.869Z,5.14
2022-11-12T08:56:23.846Z,4.00
2022-11-12T08:57:26.808Z,3.33
2022-11-12T08:58:30.400Z,3.00
2022-11-12T08:59:33.869Z,3.43
2022-11-12T09:00:37.556Z,3.57
2022-11-12T09:01:41.085Z,3.00
2022-11-12T09:02:44.643Z,3.14
2022-11-12T09:03:48.089Z,3.50
2022-11-12T09:04:51.519Z,3.00
2022-11-12T09:05:54.700Z,3.00
2022-11-12T09:06:58.022Z,3.57
2022-11-12T09:08:01.496Z,4.43
2022-11-12T09:09:04.857Z,4.71
2022-11-12T09:10:08.142Z,5.00
2022-11-12T09:11:11.423Z,4.57
2022-11-12T09:12:19.249Z,4.00
2022-11-12T09:13:19.338Z,6.50
2022-11-12T09:14:22.870Z,7.86
2022-11-12T09:15:40.937Z,7.86
2022-11-12T09:16:30.413Z,8.13
2022-11-12T09:17:33.827Z,7.67
2022-11-12T09:18:37.908Z,7.86
2022-11-12T09:19:42.871Z,6.25
2022-11-12T09:20:45.817Z,5.50
2022-11-12T09:21:49.386Z,6.00
2022-11-12T09:22:52.773Z,5.14
2022-11-12T09:23:56.266Z,4.17
2022-11-12T09:24:59.629Z,4.00
2022-11-12T09:26:02.834Z,4.57
2022-11-12T09:27:06.216Z,5.00
2022-11-12T09:28:09.504Z,4.57
2022-11-12T09:29:12.889Z,5.14
2022-11-12T09:30:16.173Z,4.00
2022-11-12T09:31:19.458Z,4.00
2022-11-12T09:32:22.643Z,4.43
2022-11-12T09:33:25.923Z,4.14
2022-11-12T09:34:29.517Z,3.57
2022-11-12T09:35:33.312Z,3.43
2022-11-12T09:36:39.805Z,3.50
2022-11-12T09:37:41.211Z,4.00
2022-11-12T09:38:44.700Z,4.00
2022-11-12T09:39:48.294Z,4.00
2022-11-12T09:40:51.764Z,4.00
2022-11-12T09:42:00.736Z,3.86
2022-11-12T09:43:00.497Z,3.50
2022-11-12T09:44:03.988Z,3.00
2022-11-12T09:45:07.459Z,3.43
2022-11-12T09:47:15.383Z,4.00
2022-11-12T09:48:18.866Z,3.57
2022-11-12T09:49:22.052Z,3.43
2022-11-12T09:50:25.100Z,4.00
2022-11-12T09:51:28.311Z,4.43
2022-11-12T09:52:31.701Z,5.00
2022-11-12T09:53:35.282Z,4.57
2022-11-12T09:54:39.292Z,4.00
2022-11-12T09:55:42.573Z,3.71
2022-11-12T09:56:45.866Z,3.00
2022-11-12T09:57:49.351Z,3.86
2022-11-12T09:58:52.411Z,4.43
2022-11-12T09:59:55.492Z,4.00
2022-11-12T10:00:58.654Z,3.86
2022-11-12T10:02:02.117Z,4.00
2022-11-12T10:03:05.460Z,4.00
2022-11-12T10:04:09.166Z,4.00
2022-11-12T10:05:12.720Z,4.00
2022-11-12T10:06:19.315Z,4.00
2022-11-12T10:07:20.580Z,3.50
2022-11-12T10:08:23.861Z,3.00
2022-11-12T10:09:27.314Z,3.62
2022-11-12T10:10:30.406Z,3.43
2022-11-12T10:11:33.806Z,3.17
2022-11-12T10:12:37.583Z,3.43
2022-11-12T10:13:40.967Z,4.43
2022-11-12T10:14:44.353Z,5.00
2022-11-12T10:15:47.746Z,5.00
2022-11-12T10:16:51.021Z,5.00
2022-11-12T10:17:54.422Z,4.57
2022-11-12T10:18:57.684Z,4.43
2022-11-12T10:20:01.285Z,5.43
2022-11-12T10:21:04.769Z,5.14
2022-11-12T10:22:08.160Z,4.43
2022-11-12T10:23:11.652Z,4.71
2022-11-12T10:24:14.983Z,4.43
2022-11-12T10:25:18.222Z,4.43
2022-11-12T10:26:21.706Z,5.00
2022-11-12T10:27:25.101Z,4.57
2022-11-12T10:28:30.191Z,4.00
2022-11-12T10:29:33.604Z,4.00
2022-11-12T10:30:36.899Z,4.00
2022-11-12T10:31:40.662Z,4.33
2022-11-12T10:32:44.186Z,5.29
2022-11-12T10:33:47.769Z,5.00
2022-11-12T10:34:51.382Z,4.50
2022-11-12T10:35:54.750Z,4.43
2022-11-12T10:36:57.927Z,5.00
2022-11-12T10:38:01.424Z,5.00
2022-11-12T10:39:04.681Z,5.00
2022-11-12T10:40:07.893Z,5.00
2022-11-12T10:41:11.482Z,5.25
2022-11-12T10:42:14.713Z,4.57
2022-11-12T10:43:18.254Z,4.43
2022-11-12T10:44:21.739Z,4.14
2022-11-12T10:45:25.331Z,4.00
2022-11-12T10:46:28.401Z,4.43
2022-11-12T10:47:31.597Z,5.00
2022-11-12T10:48:35.428Z,5.00
2022-11-12T10:49:39.085Z,5.50
2022-11-12T10:50:42.896Z,5.57
2022-11-12T10:51:46.387Z,5.00
2022-11-12T10:52:49.860Z,5.00
2022-11-12T10:53:53.649Z,4.86
2022-11-12T10:54:57.764Z,4.43
2022-11-12T10:56:01.345Z,5.29
2022-11-12T10:57:04.828Z,5.57
2022-11-12T10:58:09.723Z,4.57
2022-11-12T10:59:12.842Z,4.00
2022-11-12T11:00:16.581Z,5.00
2022-11-12T11:01:20.054Z,5.37
2022-11-12T11:02:23.899Z,4.71
2022-11-12T11:03:27.712Z,5.00
2022-11-12T11:04:31.189Z,5.00
2022-11-12T11:05:35.102Z,5.00
2022-11-12T11:06:38.312Z,5.00
2022-11-12T11:07:41.571Z,5.00
2022-11-12T11:08:44.851Z,4.57
2022-11-12T11:09:48.343Z,4.33
2022-11-12T11:10:52.572Z,4.50
2022-11-12T11:11:57.066Z,4.75
2022-11-12T11:13:00.855Z,4.25
2022-11-12T11:14:04.034Z,4.37
2022-11-12T11:15:07.732Z,5.00
2022-11-12T11:16:12.245Z,5.00
2022-11-12T11:17:15.846Z,4.50
2022-11-12T11:18:19.222Z,5.14
2022-11-12T11:19:22.506Z,4.57
2022-11-12T11:20:25.896Z,4.00
2022-11-12T11:21:29.179Z,4.43
2022-11-12T11:22:32.650Z,5.00
2022-11-12T11:23:36.074Z,5.00
2022-11-12T11:24:39.339Z,4.71
2022-11-12T11:25:42.931Z,5.43
2022-11-12T11:26:46.314Z,5.57
2022-11-12T11:27:49.602Z,5.43
2022-11-12T11:28:52.881Z,6.00
2022-11-12T11:29:56.270Z,5.57
2022-11-12T11:30:59.664Z,5.86
2022-11-12T11:32:02.839Z,6.00
2022-11-12T11:33:06.088Z,6.00
2022-11-12T11:34:09.312Z,6.00
2022-11-12T11:35:13.001Z,6.00
2022-11-12T11:36:16.487Z,6.00
2022-11-12T11:37:19.872Z,6.57
2022-11-12T11:38:23.471Z,6.14
2022-11-12T11:39:26.653Z,7.43
2022-11-12T11:40:29.831Z,6.67
2022-11-12T11:41:33.420Z,6.43
2022-11-12T11:42:37.008Z,7.00
2022-11-12T11:43:40.573Z,7.43
2022-11-12T11:44:44.093Z,7.43
2022-11-12T11:45:47.581Z,8.00
2022-11-12T11:46:51.692Z,8.00
2022-11-12T11:48:02.626Z,7.50
2022-11-12T11:48:59.292Z,7.75
2022-11-12T11:50:02.662Z,8.57
2022-11-12T11:51:06.155Z,7.57
2022-11-12T11:52:09.543Z,6.57
2022-11-12T11:53:13.029Z,6.71
2022-11-12T11:54:16.206Z,7.43
2022-11-12T11:55:19.498Z,7.14
2022-11-12T11:56:22.782Z,6.71
2022-11-12T11:57:26.676Z,7.43
2022-11-12T11:58:30.221Z,8.00
2022-11-12T11:59:33.355Z,7.57
2022-11-12T12:00:36.953Z,6.43
2022-11-12T12:01:40.121Z,7.00
2022-11-12T12:02:43.414Z,7.00
2022-11-12T12:03:46.624Z,7.00
2022-11-12T12:04:49.874Z,7.33
2022-11-12T12:05:53.254Z,8.00
2022-11-12T12:06:56.551Z,7.00
2022-11-12T12:08:00.132Z,7.00
2022-11-12T12:09:03.733Z,7.43
2022-11-12T12:10:09.453Z,7.50
2022-11-12T12:11:11.626Z,7.00
2022-11-12T12:12:15.010Z,7.43
2022-11-12T12:13:18.501Z,8.00
2022-11-12T12:14:21.925Z,8.29
2022-11-12T12:15:25.279Z,8.43
2022-11-12T12:16:28.967Z,8.86
2022-11-12T12:17:32.464Z,8.14
2022-11-12T12:18:35.944Z,7.43
2022-11-12T12:19:39.138Z,8.00
2022-11-12T12:20:42.395Z,7.57
2022-11-12T12:21:45.657Z,7.83
2022-11-12T12:22:48.882Z,7.33
2022-11-12T12:23:52.372Z,8.00
2022-11-12T12:24:55.956Z,7.86
2022-11-12T12:26:00.412Z,8.00
2022-11-12T12:27:03.863Z,8.50
2022-11-12T12:28:06.940Z,8.43
2022-11-12T12:29:10.630Z,9.00
2022-11-12T12:30:14.092Z,8.57
2022-11-12T12:31:17.297Z,8.71
2022-11-12T12:32:24.137Z,9.00
2022-11-12T12:33:24.771Z,8.50
2022-11-12T12:34:27.980Z,8.43
2022-11-12T12:35:31.264Z,8.86
2022-11-12T12:36:34.544Z,8.00
2022-11-12T12:37:37.643Z,8.00
2022-11-12T12:38:40.804Z,8.43
2022-11-12T12:39:47.926Z,8.57
2022-11-12T12:40:48.464Z,8.25
2022-11-12T12:41:51.477Z,8.00
2022-11-12T12:42:54.859Z,8.43
2022-11-12T12:43:58.052Z,8.57
2022-11-12T12:45:02.100Z,8.00
2022-11-12T12:46:05.329Z,8.00
2022-11-12T12:47:08.621Z,9.00
2022-11-12T12:48:11.908Z,10.43
2022-11-12T12:49:14.945Z,10.57
2022-11-12T12:50:18.062Z,9.67
2022-11-12T12:51:21.250Z,10.00
2022-11-12T12:52:25.035Z,9.57
2022-11-12T12:53:28.324Z,10.00
2022-11-12T12:54:31.505Z,10.00
2022-11-12T12:55:35.051Z,10.00
2022-11-12T12:56:38.484Z,10.00
2022-11-12T12:57:42.171Z,9.43
2022-11-12T12:58:45.767Z,9.71
2022-11-12T12:59:49.661Z,9.57
2022-11-12T13:00:53.309Z,9.43
2022-11-12T13:01:56.749Z,9.86
2022-11-12T13:02:59.931Z,9.57
2022-11-12T13:04:04.627Z,9.43
2022-11-12T13:05:08.025Z,9.50
2022-11-12T13:06:11.621Z,9.43
2022-11-12T13:07:15.343Z,10.43
2022-11-12T13:08:18.605Z,10.14
2022-11-12T13:09:21.691Z,8.43
2022-11-12T13:10:24.863Z,9.43
2022-11-12T13:11:28.560Z,10.33
2022-11-12T13:12:32.462Z,10.00
2022-11-12T13:13:36.144Z,9.00
2022-11-12T13:14:39.843Z,9.00
2022-11-12T13:15:43.392Z,9.50
2022-11-12T13:16:46.717Z,9.86
2022-11-12T13:17:50.111Z,10.57
2022-11-12T13:18:53.393Z,8.86
2022-11-12T13:19:56.875Z,8.57
2022-11-12T13:21:00.546Z,8.86
2022-11-12T13:22:04.392Z,9.57
2022-11-12T13:23:07.754Z,9.50
2022-11-12T13:24:11.108Z,10.14
2022-11-12T13:25:14.625Z,11.00
2022-11-12T13:26:17.910Z,10.57
2022-11-12T13:27:21.504Z,10.33
2022-11-12T13:28:25.189Z,11.29
2022-11-12T13:29:28.891Z,11.38
2022-11-12T13:30:32.494Z,11.00
2022-11-12T13:31:35.772Z,11.00
2022-11-12T13:32:39.264Z,11.00
2022-11-12T13:33:42.951Z,11.00
2022-11-12T13:34:46.125Z,11.00
2022-11-12T13:35:49.622Z,10.57
2022-11-12T13:36:53.215Z,10.00
2022-11-12T13:37:57.008Z,10.50
2022-11-12T13:39:02.747Z,11.00
2022-11-12T13:40:04.874Z,11.00
2022-11-12T13:41:08.221Z,10.57
2022-11-12T13:42:11.577Z,10.00
2022-11-12T13:43:15.272Z,10.57
2022-11-12T13:44:18.459Z,10.43
2022-11-12T13:45:21.940Z,11.67
2022-11-12T13:46:25.087Z,12.14
2022-11-12T13:47:28.409Z,11.43
2022-11-12T13:48:32.003Z,11.57
2022-11-12T13:49:35.488Z,10.57
2022-11-12T13:50:40.674Z,11.00
2022-11-12T13:51:44.217Z,11.00
2022-11-12T13:52:47.733Z,9.57
2022-11-12T13:53:51.391Z,9.00
2022-11-12T13:54:54.989Z,8.43
2022-11-12T13:55:58.367Z,9.86
2022-11-12T13:57:01.860Z,11.86
2022-11-12T13:58:05.155Z,12.33
2022-11-12T13:59:08.505Z,10.57
2022-11-12T14:00:12.023Z,10.00
2022-11-12T14:01:15.535Z,10.57